Billtown, Indiana
Current Conditions -  °F | °C
As of 2:53 AM on Sunday 21 Dec 2014 (Local Time) from KHUF Reporting Station
Clear Clear  
Wind Chill: 23°   Ceiling: Unl
Heat Index: 23°   Visibility: 7mi
Dew Point: 20°   Wind: 0mph
Humidity: 88%   Direction: NA
Pressure: 30.29"   Gusts: NA
Location:  39.5158°N, 87.1262°W
Report Text: KHUF 210753Z 00000KT 7SM CLR M05/M07 A3029 RMK AO2 SLP265 I1000 T10501067
Loading
Personal Weather Stations






























Interactive Weather Map New forecast layout! Learn more

10-Day Weather Forecast

Advertisements
Track Severe Weather on mobile